Time;durP1;ratioP1;P1;durP2;ratioP2;P2;SDS_P1;SDS_P2;PMS_P1;PMS_P2;Temp;Humidity;BMP_temperature;BMP_pressure;BME280_temperature;BME280_humidity;BME280_pressure;Samples;Min_cycle;Max_cycle;Signal;HPM_P1;HPM_P2
2022/04/03 00:01:28;;;;;;;5.30;2.60;;;3.90;99.90;;;;;;6308213;22;20000;-74
2022/04/03 00:03:54;;;;;;;4.00;2.30;;;3.80;99.90;;;;;;6307460;22;20023;-73
2022/04/03 00:06:20;;;;;;;3.38;2.20;;;3.90;99.90;;;;;;6279775;22;20416;-74
2022/04/03 00:08:46;;;;;;;5.57;2.38;;;3.80;99.90;;;;;;6306655;22;20007;-74
2022/04/03 00:11:12;;;;;;;6.40;2.75;;;3.80;99.90;;;;;;6279680;22;20003;-74
2022/04/03 00:13:39;;;;;;;3.88;2.42;;;3.80;99.90;;;;;;6307137;22;20053;-74
2022/04/03 00:16:06;;;;;;;6.10;2.33;;;3.80;99.90;;;;;;6307700;22;20019;-73
2022/04/03 00:18:32;;;;;;;3.17;2.42;;;3.80;99.90;;;;;;6307329;22;20078;-73
2022/04/03 00:20:59;;;;;;;3.40;2.20;;;3.70;99.90;;;;;;6307815;22;20027;-73
2022/04/03 00:23:25;;;;;;;4.30;2.83;;;3.70;99.90;;;;;;6307243;22;20440;-73
2022/04/03 00:25:51;;;;;;;5.57;2.47;;;3.70;99.90;;;;;;6307379;22;20005;-74
2022/04/03 00:28:18;;;;;;;4.85;2.15;;;3.60;99.90;;;;;;6307333;22;20439;-73
2022/04/03 00:30:44;;;;;;;8.07;2.60;;;3.60;99.90;;;;;;6307541;22;20443;-74
2022/04/03 00:33:11;;;;;;;6.45;2.30;;;3.60;99.90;;;;;;6307216;22;20416;-74
2022/04/03 00:35:37;;;;;;;4.82;2.10;;;3.60;99.90;;;;;;6306925;22;20083;-74
2022/04/03 00:38:03;;;;;;;3.50;1.90;;;3.60;99.90;;;;;;6306924;22;19999;-73
2022/04/03 00:40:29;;;;;;;3.50;1.83;;;3.50;99.90;;;;;;6280239;22;20003;-73
2022/04/03 00:42:55;;;;;;;4.25;2.22;;;3.50;99.90;;;;;;6306249;22;20014;-73
2022/04/03 00:45:23;;;;;;;3.95;2.28;;;3.50;99.90;;;;;;6307243;22;20325;-74
2022/04/03 00:47:53;;;;;;;4.05;2.53;;;3.40;99.90;;;;;;6307597;22;20003;-74
2022/04/03 00:50:20;;;;;;;7.55;2.83;;;3.40;99.90;;;;;;6307160;22;20053;-73
2022/04/03 00:52:47;;;;;;;5.03;2.67;;;3.40;99.90;;;;;;6307278;22;20074;-74
2022/04/03 00:55:13;;;;;;;4.90;2.13;;;3.40;99.90;;;;;;6307185;22;19999;-73
2022/04/03 00:57:40;;;;;;;4.20;2.40;;;3.40;99.90;;;;;;6307165;22;20026;-74
2022/04/03 01:00:06;;;;;;;3.63;2.38;;;3.40;99.90;;;;;;6306972;22;20088;-74
2022/04/03 01:02:32;;;;;;;3.45;2.20;;;3.30;99.90;;;;;;6307066;22;20066;-74
2022/04/03 01:04:58;;;;;;;4.50;2.42;;;3.30;99.90;;;;;;6306699;22;20080;-74
2022/04/03 01:07:24;;;;;;;3.65;2.35;;;3.30;99.90;;;;;;6306763;22;20011;-74
2022/04/03 01:09:50;;;;;;;5.82;2.20;;;3.30;99.90;;;;;;6306719;22;20004;-74
2022/04/03 01:12:16;;;;;;;4.22;1.98;;;3.20;99.90;;;;;;6279320;22;20003;-74
2022/04/03 01:14:43;;;;;;;2.95;2.10;;;3.20;99.90;;;;;;6307416;22;20053;-74
2022/04/03 01:17:13;;;;;;;2.95;2.45;;;3.10;99.90;;;;;;6279377;22;20443;-73
2022/04/03 01:19:40;;;;;;;4.13;2.40;;;3.10;99.90;;;;;;6279527;22;20018;-73
2022/04/03 01:22:06;;;;;;;4.00;2.22;;;3.10;99.90;;;;;;6307160;22;20010;-74
2022/04/03 01:24:32;;;;;;;7.97;2.28;;;3.10;99.90;;;;;;6306931;22;19995;-73
2022/04/03 01:26:58;;;;;;;7.78;2.70;;;3.10;99.90;;;;;;6306921;22;20056;-74
2022/04/03 01:29:24;;;;;;;3.58;2.67;;;3.10;99.90;;;;;;6306909;22;20347;-73
2022/04/03 01:31:51;;;;;;;5.10;2.75;;;3.00;99.90;;;;;;6307088;22;19999;-74
2022/04/03 01:34:19;;;;;;;5.30;2.60;;;3.00;99.90;;;;;;6306529;22;20071;-73
2022/04/03 01:36:46;;;;;;;5.28;2.70;;;3.00;99.90;;;;;;6279503;22;19999;-73
2022/04/03 01:39:12;;;;;;;5.43;2.90;;;3.00;99.90;;;;;;6306385;22;20762;-73
2022/04/03 01:41:44;;;;;;;6.15;2.97;;;3.00;99.90;;;;;;6307020;22;20006;-74
2022/04/03 01:44:12;;;;;;;4.88;2.30;;;3.00;99.90;;;;;;6307084;22;20432;-74
2022/04/03 01:46:39;;;;;;;5.72;3.22;;;3.00;99.90;;;;;;6307113;22;20007;-73
2022/04/03 01:49:06;;;;;;;6.93;2.88;;;2.90;99.90;;;;;;6307486;22;20003;-74
2022/04/03 01:51:32;;;;;;;6.40;2.63;;;2.90;99.90;;;;;;6306978;22;20400;-73
2022/04/03 01:53:59;;;;;;;4.93;2.63;;;2.80;99.90;;;;;;6306487;22;20007;-74
2022/04/03 01:56:25;;;;;;;4.55;2.97;;;2.80;99.90;;;;;;6306292;22;20007;-74
2022/04/03 01:58:51;;;;;;;5.30;3.53;;;2.80;99.90;;;;;;6307033;22;20007;-73
2022/04/03 02:01:17;;;;;;;4.18;2.70;;;2.80;99.90;;;;;;6306560;22;19999;-73
2022/04/03 02:03:43;;;;;;;4.78;2.90;;;2.80;99.90;;;;;;6306629;22;20002;-73
2022/04/03 02:06:08;;;;;;;6.32;3.20;;;2.70;99.90;;;;;;6306585;22;19996;-74
2022/04/03 02:08:34;;;;;;;6.20;3.05;;;2.70;99.90;;;;;;6306912;22;20011;-74
2022/04/03 02:11:00;;;;;;;8.18;3.35;;;2.70;99.90;;;;;;6306428;22;20007;-73
2022/04/03 02:13:25;;;;;;;6.95;3.40;;;2.70;99.90;;;;;;6279122;22;20012;-73
2022/04/03 02:15:51;;;;;;;8.18;3.92;;;2.70;99.90;;;;;;6306695;22;20000;-74
2022/04/03 02:18:17;;;;;;;10.38;3.78;;;2.70;99.90;;;;;;6307203;22;20022;-73
2022/04/03 02:20:43;;;;;;;6.85;3.65;;;2.60;99.90;;;;;;6308960;22;20002;-73
2022/04/03 02:23:10;;;;;;;6.80;3.83;;;2.60;99.90;;;;;;6308060;22;20370;-74
2022/04/03 02:25:36;;;;;;;7.22;3.47;;;2.60;99.90;;;;;;6308301;22;20051;-73
2022/04/03 02:28:04;;;;;;;4.40;3.38;;;2.60;99.90;;;;;;6308458;22;20409;-73
2022/04/03 02:30:30;;;;;;;5.82;3.50;;;2.60;99.90;;;;;;6308602;22;19999;-74
2022/04/03 02:32:56;;;;;;;6.88;3.50;;;2.60;99.90;;;;;;6281377;22;20061;-74
2022/04/03 02:35:22;;;;;;;6.72;3.78;;;2.50;99.90;;;;;;6308077;22;20007;-74
2022/04/03 02:37:48;;;;;;;6.40;4.25;;;2.60;99.90;;;;;;6308236;22;20011;-74
2022/04/03 02:40:16;;;;;;;7.97;4.47;;;2.50;99.90;;;;;;6308051;22;20611;-74
2022/04/03 02:42:42;;;;;;;6.28;4.45;;;2.50;99.90;;;;;;6308338;22;20003;-73
2022/04/03 02:45:13;;;;;;;9.13;4.57;;;2.50;99.90;;;;;;6281332;22;20030;-74
2022/04/03 02:47:39;;;;;;;6.10;3.88;;;2.50;99.90;;;;;;6308424;22;20007;-73
2022/04/03 02:50:06;;;;;;;8.32;5.70;;;2.50;99.90;;;;;;6308252;22;20390;-73
2022/04/03 02:52:32;;;;;;;7.55;4.80;;;2.50;99.90;;;;;;6308414;22;20003;-74
2022/04/03 02:54:58;;;;;;;7.28;5.15;;;2.50;99.90;;;;;;6307630;22;20014;-73
2022/04/03 02:57:24;;;;;;;7.95;4.50;;;2.40;99.90;;;;;;6308180;22;20417;-73
2022/04/03 02:59:50;;;;;;;8.02;5.00;;;2.40;99.90;;;;;;6308380;22;20023;-74
2022/04/03 03:02:16;;;;;;;7.85;5.38;;;2.40;99.90;;;;;;6308229;22;20022;-74
2022/04/03 03:04:42;;;;;;;10.07;5.75;;;2.40;99.90;;;;;;6308033;22;19996;-73
2022/04/03 03:07:09;;;;;;;9.10;5.53;;;2.30;99.90;;;;;;6307988;22;20011;-73
2022/04/03 03:09:35;;;;;;;9.05;5.38;;;2.30;99.90;;;;;;6280626;22;20003;-74
2022/04/03 03:12:01;;;;;;;8.88;5.65;;;2.30;99.90;;;;;;6307656;22;20320;-73
2022/04/03 03:14:27;;;;;;;10.55;5.97;;;2.30;99.90;;;;;;6308629;22;20018;-73
2022/04/03 03:16:54;;;;;;;8.40;5.57;;;2.20;99.90;;;;;;6281157;22;20003;-73
2022/04/03 03:19:20;;;;;;;10.63;6.43;;;2.30;99.90;;;;;;6308282;22;20747;-73
2022/04/03 03:21:46;;;;;;;8.90;5.60;;;2.20;99.90;;;;;;6307931;22;20028;-73
2022/04/03 03:24:12;;;;;;;9.10;5.70;;;2.20;99.90;;;;;;6307841;22;20426;-74
2022/04/03 03:26:38;;;;;;;7.32;5.47;;;2.20;99.90;;;;;;6307939;22;20003;-74
2022/04/03 03:29:04;;;;;;;8.05;5.38;;;2.20;99.90;;;;;;6280226;22;20340;-74
2022/04/03 03:31:31;;;;;;;9.70;5.20;;;2.20;99.90;;;;;;6307838;22;20056;-74
2022/04/03 03:33:57;;;;;;;8.05;5.45;;;2.10;99.90;;;;;;6307336;22;20003;-74
2022/04/03 03:36:23;;;;;;;10.95;6.15;;;2.10;99.90;;;;;;6280225;22;20000;-73
2022/04/03 03:38:49;;;;;;;7.88;5.28;;;2.10;99.90;;;;;;6280316;22;20007;-74
2022/04/03 03:41:14;;;;;;;10.27;6.00;;;2.10;99.90;;;;;;6308274;22;20006;-74
2022/04/03 03:43:41;;;;;;;8.95;5.25;;;2.10;99.90;;;;;;6280225;22;20004;-73
2022/04/03 03:46:08;;;;;;;8.30;5.45;;;2.10;99.90;;;;;;6307836;22;20067;-73
2022/04/03 03:48:34;;;;;;;11.32;5.82;;;2.00;99.90;;;;;;6307825;22;19999;-74
2022/04/03 03:51:00;;;;;;;11.15;5.88;;;2.00;99.90;;;;;;6307486;22;20505;-73
2022/04/03 03:53:26;;;;;;;11.23;5.68;;;2.00;99.90;;;;;;6307697;22;19999;-74
2022/04/03 03:55:52;;;;;;;8.45;5.75;;;2.00;99.90;;;;;;6307944;22;19999;-74
2022/04/03 03:58:18;;;;;;;9.75;5.32;;;1.90;99.90;;;;;;6307638;22;20420;-73
2022/04/03 04:00:44;;;;;;;9.30;5.70;;;1.90;99.90;;;;;;6307797;22;20003;-74
2022/04/03 04:03:09;;;;;;;9.60;5.57;;;1.90;99.90;;;;;;6307789;22;20386;-73
2022/04/03 04:05:35;;;;;;;9.23;5.30;;;1.80;99.90;;;;;;6306811;22;20057;-73
2022/04/03 04:08:01;;;;;;;9.02;5.63;;;1.80;99.90;;;;;;6307218;22;20057;-74
2022/04/03 04:10:26;;;;;;;9.00;5.38;;;1.80;99.90;;;;;;6307431;22;20384;-73
2022/04/03 04:12:52;;;;;;;11.00;5.35;;;1.80;99.90;;;;;;6306901;22;20006;-73
2022/04/03 04:15:18;;;;;;;10.70;5.05;;;1.70;99.90;;;;;;6307309;22;20078;-73
2022/04/03 04:17:46;;;;;;;9.90;5.28;;;1.80;99.90;;;;;;6307819;22;20000;-73
2022/04/03 04:20:14;;;;;;;12.30;6.32;;;1.70;99.90;;;;;;6307123;22;20077;-73
2022/04/03 04:22:41;;;;;;;11.32;5.43;;;1.80;99.90;;;;;;6307430;22;20065;-73
2022/04/03 04:25:08;;;;;;;12.20;6.88;;;1.70;99.90;;;;;;6307579;22;19999;-73
2022/04/03 04:27:34;;;;;;;11.13;6.13;;;1.70;99.90;;;;;;6307509;22;20003;-73
2022/04/03 04:30:02;;;;;;;9.90;6.35;;;1.70;99.90;;;;;;6307640;22;20010;-73
2022/04/03 04:32:27;;;;;;;12.95;6.10;;;1.70;99.90;;;;;;6307558;22;20003;-73
2022/04/03 04:34:53;;;;;;;10.98;5.43;;;1.70;99.90;;;;;;6306812;22;20052;-74
2022/04/03 04:37:19;;;;;;;8.75;6.13;;;1.70;99.90;;;;;;6279485;22;19999;-74
2022/04/03 04:39:46;;;;;;;13.05;6.70;;;1.60;99.90;;;;;;6307358;22;20427;-73
2022/04/03 04:42:12;;;;;;;9.85;5.72;;;1.60;99.90;;;;;;6306765;22;19999;-73
2022/04/03 04:44:39;;;;;;;17.77;7.07;;;1.60;99.90;;;;;;6307741;22;20445;-73
2022/04/03 04:47:05;;;;;;;12.05;6.75;;;1.60;99.90;;;;;;6279779;22;19995;-73
2022/04/03 04:49:31;;;;;;;12.27;6.47;;;1.50;99.90;;;;;;6306220;22;20099;-73
2022/04/03 04:51:57;;;;;;;11.40;6.10;;;1.60;99.90;;;;;;6307333;22;20447;-73
2022/04/03 04:54:25;;;;;;;14.27;6.25;;;1.50;99.90;;;;;;6279819;22;20413;-73
2022/04/03 04:56:51;;;;;;;18.83;6.93;;;1.60;99.90;;;;;;6280016;22;20306;-73
2022/04/03 04:59:17;;;;;;;11.85;5.95;;;1.50;99.90;;;;;;6306666;22;20092;-73
2022/04/03 05:01:43;;;;;;;9.13;6.00;;;1.50;99.90;;;;;;6307270;22;20452;-73
2022/04/03 05:04:09;;;;;;;9.07;5.97;;;1.50;99.90;;;;;;6306852;22;20003;-74
2022/04/03 05:06:35;;;;;;;10.13;6.15;;;1.50;99.90;;;;;;6307164;22;20314;-73
2022/04/03 05:09:05;;;;;;;14.80;6.30;;;1.50;99.90;;;;;;6307124;22;20058;-73
2022/04/03 05:11:32;;;;;;;9.23;5.57;;;1.50;99.90;;;;;;6306549;22;20007;-73
2022/04/03 05:13:58;;;;;;;12.02;5.50;;;1.50;99.90;;;;;;6279833;22;20011;-74
2022/04/03 05:16:25;;;;;;;12.30;5.68;;;1.50;99.90;;;;;;6307158;22;19999;-73
2022/04/03 05:18:54;;;;;;;11.77;4.93;;;1.50;99.90;;;;;;6306947;22;20031;-74
2022/04/03 05:21:22;;;;;;;10.65;5.22;;;1.50;99.90;;;;;;6278756;22;20003;-73
2022/04/03 05:23:49;;;;;;;10.85;5.05;;;1.40;99.90;;;;;;6279624;22;20003;-74
2022/04/03 05:26:16;;;;;;;12.98;5.38;;;1.40;99.90;;;;;;6306321;22;20003;-73
2022/04/03 05:28:43;;;;;;;10.65;5.03;;;1.40;99.90;;;;;;6279370;22;20003;-72
2022/04/03 05:31:09;;;;;;;8.85;5.00;;;1.40;99.90;;;;;;6307232;22;20000;-73
2022/04/03 05:33:35;;;;;;;12.32;5.22;;;1.40;99.90;;;;;;6306695;22;20054;-74
2022/04/03 05:36:01;;;;;;;10.98;6.15;;;1.40;99.90;;;;;;6306559;22;20004;-74
2022/04/03 05:38:27;;;;;;;16.83;6.40;;;1.40;99.90;;;;;;6279580;22;20011;-73
2022/04/03 05:40:53;;;;;;;10.20;6.18;;;1.40;99.90;;;;;;6306752;22;20034;-73
2022/04/03 05:43:18;;;;;;;9.68;5.82;;;1.40;99.90;;;;;;6306573;22;20007;-73
2022/04/03 05:45:45;;;;;;;10.30;5.68;;;1.40;99.90;;;;;;6306114;22;19995;-74
2022/04/03 05:48:10;;;;;;;12.63;5.50;;;1.40;99.90;;;;;;6306342;22;19999;-74
2022/04/03 05:50:38;;;;;;;9.13;6.35;;;1.40;99.90;;;;;;6306782;22;20302;-74
2022/04/03 05:53:05;;;;;;;10.45;5.53;;;1.40;99.90;;;;;;6307392;22;20003;-73
2022/04/03 05:55:31;;;;;;;11.90;5.72;;;1.40;99.90;;;;;;6309283;22;20013;-73
2022/04/03 05:57:58;;;;;;;10.52;5.95;;;1.40;99.90;;;;;;6309068;22;20392;-74
2022/04/03 06:00:24;;;;;;;10.88;6.32;;;1.40;99.90;;;;;;6308696;22;20079;-74
2022/04/03 06:02:57;;;;;;;10.68;6.22;;;1.50;99.90;;;;;;6308406;22;20479;-73
2022/04/03 06:05:26;;;;;;;13.88;5.97;;;1.50;99.90;;;;;;6308497;22;19999;-73
2022/04/03 06:07:52;;;;;;;10.70;6.35;;;1.50;99.90;;;;;;6308568;22;20018;-73
2022/04/03 06:10:20;;;;;;;14.10;9.25;;;1.50;99.90;;;;;;6309069;22;19999;-73
2022/04/03 06:12:54;;;;;;;14.23;6.80;;;1.50;99.90;;;;;;6308359;22;20007;-74
2022/04/03 06:15:20;;;;;;;11.25;6.90;;;1.60;99.90;;;;;;6308620;22;20090;-74
2022/04/03 06:17:52;;;;;;;13.45;7.28;;;1.70;99.90;;;;;;6308604;22;20093;-74
2022/04/03 06:20:18;;;;;;;;;;;1.70;99.90;;;;;;6309153;22;20424;-73
2022/04/03 06:22:44;;;;;;;16.73;8.07;;;1.70;99.90;;;;;;6309218;22;19947;-73
2022/04/03 06:25:11;;;;;;;12.88;8.70;;;1.90;99.90;;;;;;6308613;22;20000;-74
2022/04/03 06:27:36;;;;;;;14.15;7.50;;;1.90;99.90;;;;;;6279768;22;20007;-74
2022/04/03 06:30:03;;;;;;;10.88;7.63;;;1.90;99.90;;;;;;6308082;22;20003;-74
2022/04/03 06:32:29;;;;;;;13.15;7.13;;;2.00;99.90;;;;;;6308117;22;20070;-74
2022/04/03 06:34:55;;;;;;;14.57;7.60;;;2.00;99.90;;;;;;6308367;22;19999;-73
2022/04/03 06:37:21;;;;;;;12.18;7.88;;;2.10;99.90;;;;;;6308274;22;20294;-74
2022/04/03 06:39:46;;;;;;;10.32;7.10;;;2.20;99.90;;;;;;6309097;22;20022;-74
2022/04/03 06:42:12;;;;;;;10.52;6.45;;;2.30;99.90;;;;;;6280853;22;19995;-74
2022/04/03 06:44:39;;;;;;;10.38;6.38;;;2.30;99.90;;;;;;6306115;22;20038;-74
2022/04/03 06:47:06;;;;;;;10.77;7.47;;;2.40;99.90;;;;;;6307201;22;20000;-75
2022/04/03 06:49:33;;;;;;;12.05;6.90;;;2.50;99.90;;;;;;6307895;22;20027;-74
2022/04/03 06:51:59;;;;;;;15.05;7.60;;;2.60;99.90;;;;;;6308577;22;20045;-74
2022/04/03 06:54:26;;;;;;;9.00;6.43;;;2.60;99.90;;;;;;6308329;22;20325;-75
2022/04/03 06:56:53;;;;;;;9.95;6.25;;;2.70;99.90;;;;;;6308104;22;19999;-75
2022/04/03 06:59:20;;;;;;;9.45;6.63;;;2.80;99.90;;;;;;6308450;22;20007;-74
2022/04/03 07:01:46;;;;;;;16.20;6.57;;;2.90;99.90;;;;;;6308295;22;20003;-75
2022/04/03 07:04:11;;;;;;;11.73;6.90;;;3.00;99.90;;;;;;6308492;22;20006;-75
2022/04/03 07:06:37;;;;;;;12.63;6.60;;;3.00;99.90;;;;;;6307919;22;20454;-75
2022/04/03 07:09:03;;;;;;;12.38;7.82;;;3.10;99.90;;;;;;6308389;22;20329;-76
2022/04/03 07:11:29;;;;;;;11.25;6.80;;;3.20;99.90;;;;;;6308209;22;20085;-75
2022/04/03 07:13:55;;;;;;;11.20;6.38;;;3.20;99.90;;;;;;6308440;22;20305;-76
2022/04/03 07:16:22;;;;;;;12.38;6.07;;;3.30;99.90;;;;;;6308523;22;20332;-76
2022/04/03 07:18:49;;;;;;;11.30;6.18;;;3.40;99.90;;;;;;6308791;22;20041;-76
2022/04/03 07:21:15;;;;;;;14.55;5.95;;;3.50;99.90;;;;;;6308795;22;20488;-76
2022/04/03 07:23:40;;;;;;;11.98;6.30;;;3.50;99.90;;;;;;6308516;22;20006;-76
2022/04/03 07:26:07;;;;;;;9.45;5.63;;;3.60;99.90;;;;;;6280103;22;20328;-76
2022/04/03 07:28:32;;;;;;;16.98;6.47;;;3.70;99.90;;;;;;6307380;22;20010;-75
2022/04/03 07:30:58;;;;;;;9.77;5.40;;;3.70;99.90;;;;;;6280153;22;20003;-76
2022/04/03 07:33:24;;;;;;;15.27;5.72;;;3.70;99.90;;;;;;6308008;22;20074;-76
2022/04/03 07:35:51;;;;;;;9.57;5.75;;;3.80;99.90;;;;;;6308118;22;20003;-77
2022/04/03 07:38:21;;;;;;;13.38;5.88;;;3.90;99.90;;;;;;6308037;22;19999;-77
2022/04/03 07:40:46;;;;;;;9.45;6.05;;;4.10;99.90;;;;;;6308472;22;19999;-77
2022/04/03 07:43:16;;;;;;;11.73;6.07;;;4.20;99.90;;;;;;6307975;22;20424;-77
2022/04/03 07:45:42;;;;;;;14.80;5.65;;;4.30;99.90;;;;;;6308370;22;20306;-77
2022/04/03 07:48:09;;;;;;;15.70;6.75;;;4.40;99.90;;;;;;6308612;22;20070;-77
2022/04/03 07:50:41;;;;;;;8.98;5.07;;;4.50;99.90;;;;;;6308345;22;20006;-78
2022/04/03 07:53:07;;;;;;;9.70;5.63;;;4.60;99.90;;;;;;6308246;22;20425;-79
2022/04/03 07:55:37;;;;;;;10.43;4.95;;;4.60;99.90;;;;;;6308194;22;20605;-78
2022/04/03 07:58:03;;;;;;;8.50;5.18;;;4.70;99.90;;;;;;6308214;22;20004;-78
2022/04/03 08:00:29;;;;;;;8.18;5.05;;;4.80;99.90;;;;;;6307495;22;20009;-78
2022/04/03 08:02:55;;;;;;;7.78;5.18;;;4.90;99.90;;;;;;6307976;22;20409;-78
2022/04/03 08:05:21;;;;;;;6.40;4.47;;;5.00;99.90;;;;;;6307230;22;19999;-78
2022/04/03 08:07:51;;;;;;;10.27;4.10;;;5.10;99.90;;;;;;6307966;22;20017;-78
2022/04/03 08:10:24;;;;;;;7.75;4.30;;;5.30;99.90;;;;;;6308303;22;20006;-78
2022/04/03 08:12:55;;;;;;;;;;;5.40;99.90;;;;;;6281067;22;20333;-78
2022/04/03 08:15:28;;;;;;;8.20;4.38;;;5.60;99.90;;;;;;6280715;22;19899;-78
2022/04/03 08:17:55;;;;;;;7.43;4.88;;;5.70;99.90;;;;;;6280779;22;20090;-78
2022/04/03 08:20:20;;;;;;;7.93;4.35;;;5.80;99.90;;;;;;6280684;22;20078;-78
2022/04/03 08:22:48;;;;;;;4.80;3.35;;;6.00;99.90;;;;;;6308126;22;20346;-78
2022/04/03 08:25:17;;;;;;;6.50;3.83;;;6.20;99.90;;;;;;6308462;22;20003;-78
2022/04/03 08:27:49;;;;;;;3.97;2.67;;;6.30;99.90;;;;;;6310169;22;20082;-78
2022/04/03 08:30:23;;;;;;;5.00;1.60;;;6.50;99.90;;;;;;6314127;22;20049;-78
2022/04/03 08:32:49;;;;;;;5.63;1.50;;;6.60;99.90;;;;;;6307914;22;20378;-78
2022/04/03 08:35:24;;;;;;;5.13;2.17;;;6.60;99.90;;;;;;6307862;22;20041;-78
2022/04/03 08:37:50;;;;;;;4.43;2.22;;;6.70;99.90;;;;;;6307788;22;20003;-78
2022/04/03 08:40:19;;;;;;;4.63;1.88;;;7.00;99.90;;;;;;6280590;22;20003;-78
2022/04/03 08:42:45;;;;;;;4.57;2.35;;;7.00;99.90;;;;;;6307532;22;20006;-78
2022/04/03 08:45:16;;;;;;;2.80;1.92;;;7.00;99.90;;;;;;6307389;22;19999;-78
2022/04/03 08:47:46;;;;;;;4.50;2.17;;;7.10;99.90;;;;;;6307850;22;20000;-78
2022/04/03 08:50:17;;;;;;;4.88;1.80;;;7.20;99.90;;;;;;6307905;22;20003;-78
2022/04/03 08:52:53;;;;;;;7.15;2.13;;;7.40;99.90;;;;;;6307755;22;20006;-78
2022/04/03 08:55:25;;;;;;;3.70;1.70;;;7.30;99.90;;;;;;6307861;22;20011;-78
2022/04/03 08:57:59;;;;;;;7.13;2.08;;;7.40;99.90;;;;;;6307535;22;20010;-78
2022/04/03 09:00:32;;;;;;;2.17;1.80;;;7.50;99.90;;;;;;6307792;22;20000;-78
2022/04/03 09:03:00;;;;;;;4.18;1.92;;;7.50;99.90;;;;;;6307789;22;20491;-78
2022/04/03 09:05:43;;;;;;;2.92;1.58;;;7.60;99.60;;;;;;6307733;22;19999;-78
2022/04/03 09:08:10;;;;;;;5.25;1.73;;;7.70;99.30;;;;;;6307739;22;20506;-78
2022/04/03 09:10:41;;;;;;;2.50;1.60;;;7.90;99.40;;;;;;6307546;22;20086;-78
2022/04/03 09:13:10;;;;;;;3.80;1.92;;;8.00;98.70;;;;;;6307596;22;20447;-78
2022/04/03 09:15:37;;;;;;;2.40;1.33;;;8.10;98.50;;;;;;6280151;22;20073;-78
2022/04/03 09:18:06;;;;;;;4.85;1.38;;;8.30;98.70;;;;;;6307478;22;20458;-78
2022/04/03 09:20:40;;;;;;;4.53;1.33;;;8.40;98.60;;;;;;6307496;22;20036;-78
2022/04/03 09:23:08;;;;;;;1.38;1.27;;;8.50;97.20;;;;;;6307825;22;20003;-78
2022/04/03 09:25:44;;;;;;;4.03;1.90;;;8.60;97.90;;;;;;6307934;22;20011;-78
2022/04/03 09:28:14;;;;;;;3.53;1.70;;;8.60;97.30;;;;;;6280210;22;20007;-78
2022/04/03 09:30:49;;;;;;;3.05;1.50;;;8.70;97.90;;;;;;6309439;22;20435;-78
2022/04/03 09:33:20;;;;;;;2.75;1.85;;;8.80;96.60;;;;;;6309390;22;20010;-78
2022/04/03 09:36:01;;;;;;;2.58;1.60;;;8.90;97.20;;;;;;6309631;22;20030;-78
2022/04/03 09:38:28;;;;;;;5.28;1.50;;;9.10;96.80;;;;;;6309437;22;20305;-78
2022/04/03 09:40:58;;;;;;;2.50;1.17;;;9.30;96.30;;;;;;6309446;22;19995;-78
2022/04/03 09:43:27;;;;;;;3.38;1.42;;;9.40;94.50;;;;;;6282393;22;20429;-77
2022/04/03 09:45:58;;;;;;;3.67;1.60;;;9.50;96.60;;;;;;6309228;22;20006;-77
2022/04/03 09:48:36;;;;;;;3.13;1.63;;;9.80;96.70;;;;;;6309649;22;20404;-77
2022/04/03 09:51:21;;;;;;;4.18;1.70;;;9.90;96.00;;;;;;6309569;22;20396;-77
2022/04/03 09:53:58;;;;;;;2.42;1.38;;;9.90;95.80;;;;;;6309134;22;20023;-78
2022/04/03 09:56:31;;;;;;;6.47;1.50;;;9.80;95.60;;;;;;6309752;22;20429;-78
2022/04/03 09:58:58;;;;;;;2.05;1.48;;;9.80;96.20;;;;;;6309119;22;20010;-78
2022/04/03 10:01:40;;;;;;;1.95;1.60;;;10.10;96.30;;;;;;6309622;22;19995;-78
2022/04/03 10:04:14;;;;;;;6.15;2.38;;;10.30;95.30;;;;;;6309187;22;20426;-78
2022/04/03 10:06:40;;;;;;;2.97;1.80;;;10.40;94.70;;;;;;6281279;22;20019;-78
2022/04/03 10:09:15;;;;;;;4.20;1.98;;;10.40;95.20;;;;;;6281844;22;20098;-78
2022/04/03 10:11:44;;;;;;;2.55;1.58;;;10.40;95.90;;;;;;6281672;22;20006;-77
2022/04/03 10:14:21;;;;;;;2.33;1.50;;;10.50;95.50;;;;;;6309247;22;19995;-78
2022/04/03 10:16:49;;;;;;;5.53;2.03;;;10.10;95.90;;;;;;6309256;22;19999;-77
2022/04/03 10:19:14;;;;;;;2.30;1.38;;;10.10;94.60;;;;;;6281658;22;20007;-77
2022/04/03 10:21:41;;;;;;;2.45;1.08;;;10.40;94.60;;;;;;6281447;22;20000;-77
2022/04/03 10:24:19;;;;;;;3.65;1.52;;;10.10;92.50;;;;;;6308523;22;20447;-78
2022/04/03 10:27:02;;;;;;;2.80;1.88;;;10.00;93.80;;;;;;6309103;22;20022;-77
2022/04/03 10:29:32;;;;;;;4.25;1.50;;;10.10;94.10;;;;;;6308732;22;20048;-77
2022/04/03 10:32:03;;;;;;;6.90;1.50;;;9.70;94.20;;;;;;6281627;22;20004;-77
2022/04/03 10:34:30;;;;;;;1.63;1.23;;;9.50;92.50;;;;;;6309285;22;19999;-77
2022/04/03 10:36:56;;;;;;;3.30;1.30;;;9.30;93.10;;;;;;6281538;22;20007;-77
2022/04/03 10:39:28;;;;;;;2.90;1.58;;;9.40;94.40;;;;;;6308476;22;20030;-77
2022/04/03 10:42:20;;;;;;;3.00;1.60;;;9.50;93.40;;;;;;6279676;22;20000;-80
2022/04/03 10:45:10;;;;;;;2.25;1.38;;;9.30;92.40;;;;;;6281548;22;20367;-77
2022/04/03 10:47:37;;;;;;;4.72;1.90;;;9.60;92.80;;;;;;6267703;22;20387;-78
2022/04/03 10:50:04;;;;;;;1.75;1.40;;;9.90;92.30;;;;;;6308708;22;20003;-78
2022/04/03 10:52:38;;;;;;;1.95;1.25;;;10.10;93.40;;;;;;6308253;22;20133;-77
2022/04/03 10:55:28;;;;;;;4.00;1.40;;;10.30;93.40;;;;;;6314349;22;20483;-78
2022/04/03 10:58:06;;;;;;;1.33;1.15;;;10.20;92.80;;;;;;6308621;22;20084;-78
2022/04/03 11:00:41;;;;;;;3.20;1.90;;;10.10;93.20;;;;;;6308558;22;20092;-78
2022/04/03 11:03:18;;;;;;;3.75;1.25;;;10.10;92.90;;;;;;6308689;22;20000;-77
2022/04/03 11:05:46;;;;;;;3.60;1.25;;;10.10;92.30;;;;;;6308864;22;20000;-77
2022/04/03 11:08:13;;;;;;;4.70;1.60;;;10.10;92.20;;;;;;6280670;22;20011;-77
2022/04/03 11:10:57;;;;;;;4.50;1.50;;;10.10;92.90;;;;;;6308866;22;20034;-77
2022/04/03 11:13:35;;;;;;;1.77;1.30;;;10.10;93.20;;;;;;6281079;22;20004;-77
2022/04/03 11:16:01;;;;;;;3.50;1.80;;;10.00;92.60;;;;;;6308684;22;20006;-76
2022/04/03 11:18:47;;;;;;;1.45;1.10;;;9.80;92.60;;;;;;6308488;22;20010;-77
2022/04/03 11:21:28;;;;;;;1.70;0.98;;;9.90;92.70;;;;;;6308357;22;20074;-75
2022/04/03 11:24:09;;;;;;;3.42;1.20;;;10.10;92.40;;;;;;6304118;22;20074;-75
2022/04/03 11:26:36;;;;;;;1.33;1.23;;;10.40;91.80;;;;;;6253929;22;19999;-74
2022/04/03 11:29:06;;;;;;;1.95;1.38;;;10.50;90.90;;;;;;6307286;22;20003;-74
2022/04/03 11:31:33;;;;;;;1.83;1.20;;;10.70;91.20;;;;;;6279927;22;20436;-74
2022/04/03 11:34:00;;;;;;;5.07;0.98;;;10.60;90.30;;;;;;6278809;22;20023;-77
2022/04/03 11:36:31;;;;;;;3.72;1.40;;;10.30;90.10;;;;;;6280890;22;20034;-77
2022/04/03 11:39:05;;;;;;;1.67;1.10;;;10.20;91.00;;;;;;6307828;22;20482;-79
2022/04/03 11:41:35;;;;;;;3.45;2.00;;;10.10;91.30;;;;;;6307862;22;19999;-78
2022/04/03 11:44:02;;;;;;;6.57;1.42;;;10.20;92.10;;;;;;6308456;22;19996;-78
2022/04/03 11:46:51;;;;;;;1.45;1.35;;;10.10;91.70;;;;;;6308263;22;20070;-78
2022/04/03 11:49:33;;;;;;;2.83;1.40;;;10.10;91.70;;;;;;6290669;22;20007;-78
2022/04/03 11:52:09;;;;;;;4.32;1.20;;;10.10;92.00;;;;;;6306786;22;20376;-78
2022/04/03 11:54:38;;;;;;;3.40;1.40;;;10.30;92.50;;;;;;6308020;22;19991;-78
2022/04/03 11:57:07;;;;;;;2.78;1.52;;;10.30;92.00;;;;;;6308512;22;20003;-78
2022/04/03 11:59:38;;;;;;;3.65;1.40;;;10.40;92.40;;;;;;6307336;22;20004;-78
2022/04/03 12:02:15;;;;;;;2.43;1.03;;;10.50;91.60;;;;;;6307858;22;20337;-77
2022/04/03 12:04:43;;;;;;;2.28;0.90;;;10.50;91.70;;;;;;6305868;22;20359;-78
2022/04/03 12:07:13;;;;;;;1.98;1.00;;;10.40;92.10;;;;;;6307214;22;20011;-78
2022/04/03 12:09:44;;;;;;;1.73;0.98;;;10.50;91.40;;;;;;6308107;22;19995;-78
2022/04/03 12:12:12;;;;;;;3.28;1.23;;;10.50;91.30;;;;;;6280719;22;20044;-77
2022/04/03 12:14:42;;;;;;;5.38;1.27;;;10.50;90.80;;;;;;6307566;22;20409;-78
2022/04/03 12:17:13;;;;;;;1.60;1.50;;;10.50;91.70;;;;;;6280629;22;20004;-78
2022/04/03 12:19:47;;;;;;;4.25;1.25;;;10.50;91.90;;;;;;6307135;22;20003;-78
2022/04/03 12:22:18;;;;;;;2.65;1.40;;;10.30;90.70;;;;;;6307263;22;20002;-78
2022/04/03 12:24:49;;;;;;;2.03;1.38;;;10.30;92.50;;;;;;6307767;22;20475;-77
2022/04/03 12:27:16;;;;;;;2.63;1.50;;;10.20;92.20;;;;;;6280028;22;20056;-78
2022/04/03 12:29:46;;;;;;;1.98;1.33;;;10.10;92.00;;;;;;6280434;22;20010;-78
2022/04/03 12:32:18;;;;;;;2.67;1.40;;;10.10;93.40;;;;;;6307478;22;20006;-78
2022/04/03 12:34:48;;;;;;;2.78;1.63;;;9.90;92.70;;;;;;6307226;22;20007;-78
2022/04/03 12:37:15;;;;;;;3.28;1.52;;;10.00;93.10;;;;;;6307461;22;19996;-78
2022/04/03 12:39:45;;;;;;;2.90;1.90;;;10.10;93.00;;;;;;6306898;22;19999;-78
2022/04/03 12:42:13;;;;;;;3.63;1.60;;;10.10;93.10;;;;;;6307214;22;20003;-78
2022/04/03 12:44:45;;;;;;;2.00;1.58;;;10.10;92.70;;;;;;6307585;22;19995;-78
2022/04/03 12:47:18;;;;;;;;;;;10.00;92.80;;;;;;6280354;22;20000;-75
2022/04/03 12:50:06;;;;;;;5.45;1.98;;;10.00;93.60;;;;;;6279310;22;19926;-78
2022/04/03 12:52:46;;;;;;;1.75;1.25;;;9.90;94.20;;;;;;6307298;22;20401;-77
2022/04/03 12:55:23;;;;;;;1.75;1.65;;;10.10;94.00;;;;;;6307049;22;20026;-77
2022/04/03 13:00:43;;;;;;;2.53;1.40;;;10.40;93.30;;;;;;6307375;22;20451;-77
2022/04/03 13:03:09;;;;;;;2.55;1.40;;;10.50;93.70;;;;;;6279172;22;20057;-77